NCAR-RAP Real-Time Weather Data

Output produced by METARs form (19 June 2019  12:03 UTC)
found at http://weather.rap.ucar.edu/surface/
 
KPHL 191154Z 10005KT 10SM FEW009 BKN028 OVC110 21/21 A2985 RMK AO2 SLP107 60000 T02060206 10217 20200 56003
KPHL 191142Z 09005KT 10SM FEW009 BKN028 OVC110 21/21 A2985 RMK AO2 T02060206
KPHL 191054Z 00000KT 10SM SCT013 SCT035 BKN110 21/21 A2985 RMK AO2 SLP107 SCT013 V BKN T02060206
KPHL 191047Z 00000KT 10SM SCT013 SCT035 BKN110 21/21 A2985 RMK AO2 SCT013 V BKN T02060206
KPHL 191029Z 00000KT 10SM FEW008 BKN013 BKN032 BKN140 20/20 A2985 RMK AO2 T02000200 $
KPHL 191013Z 16004KT 10SM FEW008 BKN015 BKN042 BKN140 20/20 A2985 RMK AO2 T02000200 $
KPHL 190954Z 00000KT 10SM SCT016 BKN042 BKN075 BKN140 20/20 A2985 RMK AO2 SLP109 SCT V BKN T02000200 $
KPHL 190854Z 21003KT 10SM FEW015 BKN050 BKN090 OVC180 21/21 A2986 RMK AO2 SLP109 60000 T02060206 56009 $
KPHL 190754Z 00000KT 10SM FEW060 SCT120 OVC240 21/20 A2986 RMK AO2 RAE12 SLP110 P0000 T02060200 $
KPHL 190712Z 25004KT 10SM BKN110 BKN180 OVC250 21/21 A2986 RMK AO2 RAE12 P0000 T02110206 $
KPHL 190654Z 25005KT 7SM -RA SCT070 BKN085 BKN110 OVC150 21/21 A2987 RMK AO2 RAB0556 SLP113 P0000 T02110206 $
KPHL 190645Z 26006KT 7SM -RA SCT085 BKN110 OVC150 21/21 A2987 RMK AO2 RAB0556 P0000 T02110206 $
KPHL 190554Z 24006KT 10SM BKN085 BKN120 OVC170 22/21 A2988 RMK AO2 SLP118 60000 T02170206 10256 20206 56004 $
KPHL 190454Z COR 00000KT 10SM SCT045 BKN080 BKN150 OVC240 21/21 A2988 RMK AO2 SLP119 T02110206 402670183 $
KPHL 190354Z 13004KT 10SM FEW012 SCT085 BKN150 OVC220 21/21 A2989 RMK AO2 SLP121 T02060206 $
KPHL 190254Z 12004KT 10SM SCT080 BKN140 BKN200 OVC260 21/21 A2990 RMK AO2 SLP123 60000 T02110206 53013 $
KPHL 190154Z 35004KT 10SM FEW050 SCT090 BKN140 BKN250 22/19 A2988 RMK AO2 RAB02E27 SLP118 P0000 T02220194 $
KPHL 190054Z VRB06KT 10SM FEW050 SCT090 BKN140 BKN250 23/20 A2987 RMK AO2 RAB16E53 SLP114 P0000 T02280200 $
KPHL 182354Z 29012KT 10SM SCT044 BKN075 BKN140 BKN250 26/18 A2986 RMK AO2 SLP110 60000 T02560183 10267 20250 53012 $
KPHL 182254Z 28013G20KT 10SM FEW035 BKN060 BKN075 BKN140 BKN250 26/21 A2983 RMK AO2 SLP102 T02610206 $
KPHL 182154Z 24015KT 10SM FEW025 SCT050 BKN170 BKN240 27/21 A2982 RMK AO2 LTG DSNT NE SLP098 T02670211 $
KPHL 182054Z 24016KT 10SM FEW025 SCT040 BKN140 BKN250 26/20 A2982 RMK AO2 RAE1957 SLP098 P0000 60000 T02610200 57017
KPHL 181954Z 22010KT 10SM -RA SCT025 SCT040 BKN140 BKN250 26/22 A2984 RMK AO2 RAB51 SLP104 CB DSNT N MOV E P0000 T02560217
KPHL 181854Z 23010KT 10SM SCT023 BKN140 26/21 A2986 RMK AO2 SLP110 T02610211
KPHL 181754Z 24008KT 10SM SCT023 SCT050 OVC130 25/22 A2987 RMK AO2 SLP115 60000 T02500217 10250 20200 58016 $
KPHL 181751Z 23008KT 10SM SCT023 BKN050 OVC130 25/22 A2988 RMK AO2 $
KPHL 181654Z 22007KT 200V260 10SM BKN018 BKN050 OVC130 24/21 A2990 RMK AO2 SLP124 T02390211 $
KPHL 181650Z VRB06KT 10SM BKN015 BKN050 BKN130 OVC250 24/21 A2990 RMK AO2 $
KPHL 181607Z 18007KT 10SM SCT014 BKN050 BKN110 BKN250 23/21 A2992 RMK AO2 SCT V BKN T02330211 $
KPHL 181554Z 19004KT 10SM BKN014 BKN050 OVC110 23/21 A2992 RMK AO2 SLP131 T02280211 $
KPHL 181530Z 19004KT 10SM BKN012 BKN050 OVC110 22/21 A2992 RMK AO2 T02220211 $
KPHL 181501Z 16004KT 9SM BKN010 OVC014 22/22 A2992 RMK AO2 T02220217 $
KPHL 181454Z 15003KT 7SM BKN009 OVC014 22/21 A2992 RMK AO2 SLP131 60000 T02170211 58009 $
KPHL 181431Z 00000KT 7SM BKN007 OVC014 21/21 A2993 RMK AO2 T02110211 $